sensor_id;sensor_type;location;lat;lon;timestamp;pressure;altitude;pressure_sealevel;temperature;humidity
77212;BME280;66206;0.000;0.000;2023-12-14T00:00:49;96680.99;;;22.14;31.04
77212;BME280;66206;0.000;0.000;2023-12-14T00:03:16;96683.55;;;21.98;30.91
77212;BME280;66206;0.000;0.000;2023-12-14T00:05:42;96689.52;;;21.89;31.14
77212;BME280;66206;0.000;0.000;2023-12-14T00:08:09;96691.09;;;22.01;30.97
77212;BME280;66206;0.000;0.000;2023-12-14T00:10:36;96693.10;;;22.10;30.88
77212;BME280;66206;0.000;0.000;2023-12-14T00:13:02;96696.74;;;21.77;31.18
77212;BME280;66206;0.000;0.000;2023-12-14T00:15:29;96703.08;;;21.76;31.16
77212;BME280;66206;0.000;0.000;2023-12-14T00:17:56;96702.45;;;21.90;30.92
77212;BME280;66206;0.000;0.000;2023-12-14T00:20:22;96703.48;;;21.68;31.11
77212;BME280;66206;0.000;0.000;2023-12-14T00:22:49;96705.14;;;21.83;30.91
77212;BME280;66206;0.000;0.000;2023-12-14T00:25:16;96706.00;;;21.88;30.86
77212;BME280;66206;0.000;0.000;2023-12-14T00:27:42;96709.41;;;21.79;30.88
77212;BME280;66206;0.000;0.000;2023-12-14T00:30:10;96716.48;;;21.78;30.80
77212;BME280;66206;0.000;0.000;2023-12-14T00:32:36;96723.11;;;21.78;30.80
77212;BME280;66206;0.000;0.000;2023-12-14T00:35:03;96724.26;;;21.77;30.71
77212;BME280;66206;0.000;0.000;2023-12-14T00:37:30;96724.72;;;22.07;30.56
77212;BME280;66206;0.000;0.000;2023-12-14T00:39:57;96726.74;;;21.81;30.62
77212;BME280;66206;0.000;0.000;2023-12-14T00:42:23;96731.87;;;21.80;30.65
77212;BME280;66206;0.000;0.000;2023-12-14T00:44:50;96735.64;;;21.83;30.52
77212;BME280;66206;0.000;0.000;2023-12-14T00:47:17;96738.62;;;21.65;30.63
77212;BME280;66206;0.000;0.000;2023-12-14T00:49:43;96742.60;;;21.64;30.61
77212;BME280;66206;0.000;0.000;2023-12-14T00:52:10;96745.15;;;21.71;30.56
77212;BME280;66206;0.000;0.000;2023-12-14T00:54:37;96749.17;;;21.87;30.54
77212;BME280;66206;0.000;0.000;2023-12-14T00:57:04;96753.50;;;21.84;30.38
77212;BME280;66206;0.000;0.000;2023-12-14T00:59:30;96756.35;;;21.80;30.44
77212;BME280;66206;0.000;0.000;2023-12-14T01:01:57;96761.47;;;21.61;30.53
77212;BME280;66206;0.000;0.000;2023-12-14T01:04:24;96765.62;;;21.77;30.47
77212;BME280;66206;0.000;0.000;2023-12-14T01:06:50;96769.72;;;21.73;30.44
77212;BME280;66206;0.000;0.000;2023-12-14T01:09:17;96776.12;;;21.94;30.40
77212;BME280;66206;0.000;0.000;2023-12-14T01:11:44;96780.03;;;21.56;30.45
77212;BME280;66206;0.000;0.000;2023-12-14T01:14:10;96784.35;;;21.63;30.49
77212;BME280;66206;0.000;0.000;2023-12-14T01:16:37;96788.19;;;21.79;30.36
77212;BME280;66206;0.000;0.000;2023-12-14T01:19:04;96790.14;;;21.70;30.46
77212;BME280;66206;0.000;0.000;2023-12-14T01:21:31;96793.65;;;21.48;30.58
77212;BME280;66206;0.000;0.000;2023-12-14T01:23:57;96797.69;;;21.73;30.32
77212;BME280;66206;0.000;0.000;2023-12-14T01:26:24;96801.92;;;21.68;30.33
77212;BME280;66206;0.000;0.000;2023-12-14T01:28:51;96805.27;;;21.51;30.46
77212;BME280;66206;0.000;0.000;2023-12-14T01:31:17;96805.94;;;21.60;30.46
77212;BME280;66206;0.000;0.000;2023-12-14T01:33:44;96806.40;;;21.61;30.33
77212;BME280;66206;0.000;0.000;2023-12-14T01:36:11;96809.23;;;21.65;30.40
77212;BME280;66206;0.000;0.000;2023-12-14T01:38:37;96813.47;;;21.76;30.35
77212;BME280;66206;0.000;0.000;2023-12-14T01:41:04;96815.46;;;21.60;30.43
77212;BME280;66206;0.000;0.000;2023-12-14T01:43:31;96815.88;;;21.46;30.46
77212;BME280;66206;0.000;0.000;2023-12-14T01:45:58;96820.29;;;21.64;30.47
77212;BME280;66206;0.000;0.000;2023-12-14T01:48:24;96822.26;;;21.53;30.47
77212;BME280;66206;0.000;0.000;2023-12-14T01:50:51;96824.43;;;21.40;30.55
77212;BME280;66206;0.000;0.000;2023-12-14T01:53:18;96823.04;;;21.63;30.45
77212;BME280;66206;0.000;0.000;2023-12-14T01:55:45;96830.28;;;21.51;30.48
77212;BME280;66206;0.000;0.000;2023-12-14T01:58:11;96835.11;;;21.58;30.41
77212;BME280;66206;0.000;0.000;2023-12-14T02:00:39;96840.36;;;21.44;30.40
77212;BME280;66206;0.000;0.000;2023-12-14T02:03:07;96848.33;;;21.49;30.35
77212;BME280;66206;0.000;0.000;2023-12-14T02:05:34;96849.63;;;21.45;30.37
77212;BME280;66206;0.000;0.000;2023-12-14T02:08:01;96851.13;;;21.47;30.37
77212;BME280;66206;0.000;0.000;2023-12-14T02:10:27;96855.78;;;21.45;30.40
77212;BME280;66206;0.000;0.000;2023-12-14T02:12:54;96854.66;;;21.46;30.45
77212;BME280;66206;0.000;0.000;2023-12-14T02:15:21;96857.01;;;21.55;30.52
77212;BME280;66206;0.000;0.000;2023-12-14T02:17:47;96859.28;;;21.48;30.49
77212;BME280;66206;0.000;0.000;2023-12-14T02:20:14;96863.99;;;21.50;30.37
77212;BME280;66206;0.000;0.000;2023-12-14T02:22:48;96864.83;;;21.72;30.25
77212;BME280;66206;0.000;0.000;2023-12-14T02:25:10;96866.18;;;21.58;30.34
77212;BME280;66206;0.000;0.000;2023-12-14T02:27:36;96865.45;;;21.37;30.46
77212;BME280;66206;0.000;0.000;2023-12-14T02:30:03;96868.28;;;21.61;30.34
77212;BME280;66206;0.000;0.000;2023-12-14T02:32:30;96867.66;;;21.42;30.40
77212;BME280;66206;0.000;0.000;2023-12-14T02:34:57;96867.81;;;21.39;30.46
77212;BME280;66206;0.000;0.000;2023-12-14T02:37:24;96870.01;;;21.45;30.38
77212;BME280;66206;0.000;0.000;2023-12-14T02:39:50;96874.29;;;21.56;30.38
77212;BME280;66206;0.000;0.000;2023-12-14T02:42:17;96878.89;;;21.51;30.39
77212;BME280;66206;0.000;0.000;2023-12-14T02:44:44;96880.07;;;21.31;30.35
77212;BME280;66206;0.000;0.000;2023-12-14T02:47:10;96887.25;;;21.45;30.33
77212;BME280;66206;0.000;0.000;2023-12-14T02:49:37;96890.76;;;21.53;30.41
77212;BME280;66206;0.000;0.000;2023-12-14T02:52:04;96894.02;;;21.46;30.35
77212;BME280;66206;0.000;0.000;2023-12-14T02:54:31;96893.28;;;21.43;30.38
77212;BME280;66206;0.000;0.000;2023-12-14T02:56:57;96897.44;;;21.52;30.30
77212;BME280;66206;0.000;0.000;2023-12-14T02:59:24;96903.18;;;21.44;30.33
77212;BME280;66206;0.000;0.000;2023-12-14T03:01:51;96908.80;;;21.25;30.42
77212;BME280;66206;0.000;0.000;2023-12-14T03:04:18;96913.31;;;21.43;30.33
77212;BME280;66206;0.000;0.000;2023-12-14T03:06:44;96919.27;;;21.39;30.38
77212;BME280;66206;0.000;0.000;2023-12-14T03:09:11;96921.17;;;21.29;30.34
77212;BME280;66206;0.000;0.000;2023-12-14T03:11:38;96921.94;;;21.35;30.45
77212;BME280;66206;0.000;0.000;2023-12-14T03:14:04;96923.25;;;21.41;30.38
77212;BME280;66206;0.000;0.000;2023-12-14T03:16:31;96926.28;;;21.36;30.38
77212;BME280;66206;0.000;0.000;2023-12-14T03:18:58;96928.74;;;21.26;30.41
77212;BME280;66206;0.000;0.000;2023-12-14T03:21:24;96932.59;;;21.32;30.22
77212;BME280;66206;0.000;0.000;2023-12-14T03:23:51;96938.18;;;21.29;30.40
77212;BME280;66206;0.000;0.000;2023-12-14T03:26:18;96939.70;;;21.46;30.31
77212;BME280;66206;0.000;0.000;2023-12-14T03:28:44;96948.45;;;21.36;30.36
77212;BME280;66206;0.000;0.000;2023-12-14T03:31:11;96950.11;;;21.38;30.31
77212;BME280;66206;0.000;0.000;2023-12-14T03:33:38;96951.94;;;21.24;30.36
77212;BME280;66206;0.000;0.000;2023-12-14T03:36:05;96955.96;;;21.31;30.39
77212;BME280;66206;0.000;0.000;2023-12-14T03:38:32;96956.56;;;21.23;30.38
77212;BME280;66206;0.000;0.000;2023-12-14T03:40:59;96961.41;;;21.23;30.32
77212;BME280;66206;0.000;0.000;2023-12-14T03:43:26;96963.96;;;21.37;30.22
77212;BME280;66206;0.000;0.000;2023-12-14T03:45:53;96965.22;;;21.24;30.34
77212;BME280;66206;0.000;0.000;2023-12-14T03:48:20;96970.53;;;21.36;30.25
77212;BME280;66206;0.000;0.000;2023-12-14T03:50:46;96972.45;;;21.29;30.40
77212;BME280;66206;0.000;0.000;2023-12-14T03:53:13;96976.39;;;21.27;30.34
77212;BME280;66206;0.000;0.000;2023-12-14T03:55:40;96982.17;;;21.33;30.36
77212;BME280;66206;0.000;0.000;2023-12-14T03:58:06;96988.36;;;21.35;30.26
77212;BME280;66206;0.000;0.000;2023-12-14T04:00:33;96987.42;;;21.29;30.32
77212;BME280;66206;0.000;0.000;2023-12-14T04:03:00;96991.99;;;21.35;30.27
77212;BME280;66206;0.000;0.000;2023-12-14T04:05:26;96997.36;;;21.33;30.19
77212;BME280;66206;0.000;0.000;2023-12-14T04:07:53;97006.93;;;21.38;30.17
77212;BME280;66206;0.000;0.000;2023-12-14T04:10:20;97013.36;;;21.40;30.22
77212;BME280;66206;0.000;0.000;2023-12-14T04:12:47;97018.29;;;21.29;30.30
77212;BME280;66206;0.000;0.000;2023-12-14T04:15:13;97020.87;;;21.29;30.30
77212;BME280;66206;0.000;0.000;2023-12-14T04:17:40;97023.14;;;21.27;30.10
77212;BME280;66206;0.000;0.000;2023-12-14T04:20:07;97027.60;;;21.41;30.09
77212;BME280;66206;0.000;0.000;2023-12-14T04:22:34;97031.68;;;21.30;29.93
77212;BME280;66206;0.000;0.000;2023-12-14T04:25:00;97033.63;;;21.30;29.98
77212;BME280;66206;0.000;0.000;2023-12-14T04:27:27;97036.82;;;21.43;29.82
77212;BME280;66206;0.000;0.000;2023-12-14T04:29:54;97040.01;;;21.22;29.97
77212;BME280;66206;0.000;0.000;2023-12-14T04:32:21;97044.53;;;21.51;29.95
77212;BME280;66206;0.000;0.000;2023-12-14T04:34:47;97044.34;;;21.60;29.94
77212;BME280;66206;0.000;0.000;2023-12-14T04:37:14;97050.69;;;21.38;29.99
77212;BME280;66206;0.000;0.000;2023-12-14T04:39:41;97056.67;;;21.43;29.82
77212;BME280;66206;0.000;0.000;2023-12-14T04:42:07;97059.91;;;21.56;29.77
77212;BME280;66206;0.000;0.000;2023-12-14T04:44:34;97058.35;;;21.55;29.82
77212;BME280;66206;0.000;0.000;2023-12-14T04:47:01;97061.18;;;21.42;29.84
77212;BME280;66206;0.000;0.000;2023-12-14T04:49:27;97062.53;;;21.44;29.87
77212;BME280;66206;0.000;0.000;2023-12-14T04:51:54;97072.00;;;21.47;29.93
77212;BME280;66206;0.000;0.000;2023-12-14T04:54:21;97074.14;;;21.48;29.93
77212;BME280;66206;0.000;0.000;2023-12-14T04:56:47;97082.54;;;21.36;30.04
77212;BME280;66206;0.000;0.000;2023-12-14T04:59:14;97084.77;;;21.65;30.05
77212;BME280;66206;0.000;0.000;2023-12-14T05:01:41;97085.88;;;21.45;30.14
77212;BME280;66206;0.000;0.000;2023-12-14T05:04:08;97089.03;;;21.50;30.03
77212;BME280;66206;0.000;0.000;2023-12-14T05:06:34;97094.56;;;21.54;29.87
77212;BME280;66206;0.000;0.000;2023-12-14T05:09:01;97097.60;;;21.48;29.93
77212;BME280;66206;0.000;0.000;2023-12-14T05:11:28;97097.42;;;21.52;29.87
77212;BME280;66206;0.000;0.000;2023-12-14T05:13:54;97102.49;;;21.54;29.82
77212;BME280;66206;0.000;0.000;2023-12-14T05:16:21;97102.39;;;21.57;29.91
77212;BME280;66206;0.000;0.000;2023-12-14T05:18:48;97104.48;;;21.63;29.87
77212;BME280;66206;0.000;0.000;2023-12-14T05:21:16;97110.78;;;21.53;29.80
77212;BME280;66206;0.000;0.000;2023-12-14T05:23:42;97112.69;;;21.72;29.76
77212;BME280;66206;0.000;0.000;2023-12-14T05:26:09;97119.89;;;21.59;29.77
77212;BME280;66206;0.000;0.000;2023-12-14T05:28:36;97121.30;;;21.66;29.71
77212;BME280;66206;0.000;0.000;2023-12-14T05:31:03;97127.84;;;21.61;29.74
77212;BME280;66206;0.000;0.000;2023-12-14T05:33:30;97131.92;;;21.59;29.62
77212;BME280;66206;0.000;0.000;2023-12-14T05:35:56;97134.83;;;21.65;29.56
77212;BME280;66206;0.000;0.000;2023-12-14T05:38:23;97135.82;;;21.57;29.63
77212;BME280;66206;0.000;0.000;2023-12-14T05:40:50;97143.21;;;21.45;29.77
77212;BME280;66206;0.000;0.000;2023-12-14T05:43:16;97149.60;;;21.57;29.60
77212;BME280;66206;0.000;0.000;2023-12-14T05:45:43;97153.23;;;21.66;29.50
77212;BME280;66206;0.000;0.000;2023-12-14T05:48:10;97161.06;;;21.56;29.71
77212;BME280;66206;0.000;0.000;2023-12-14T05:50:36;97158.34;;;21.63;29.51
77212;BME280;66206;0.000;0.000;2023-12-14T05:53:03;97162.03;;;21.78;29.62
77212;BME280;66206;0.000;0.000;2023-12-14T05:55:30;97166.69;;;21.64;29.60
77212;BME280;66206;0.000;0.000;2023-12-14T05:57:56;97168.33;;;21.72;29.64
77212;BME280;66206;0.000;0.000;2023-12-14T06:00:23;97172.00;;;21.61;29.65
77212;BME280;66206;0.000;0.000;2023-12-14T06:02:50;97175.27;;;21.56;29.57
77212;BME280;66206;0.000;0.000;2023-12-14T06:05:16;97179.74;;;21.73;29.49
77212;BME280;66206;0.000;0.000;2023-12-14T06:07:43;97188.47;;;21.65;29.56
77212;BME280;66206;0.000;0.000;2023-12-14T06:10:10;97191.39;;;21.70;29.38
77212;BME280;66206;0.000;0.000;2023-12-14T06:12:36;97194.55;;;21.67;29.27
77212;BME280;66206;0.000;0.000;2023-12-14T06:15:04;97199.39;;;21.64;29.44
77212;BME280;66206;0.000;0.000;2023-12-14T06:17:31;97207.08;;;21.58;29.50
77212;BME280;66206;0.000;0.000;2023-12-14T06:19:57;97210.37;;;21.55;29.62
77212;BME280;66206;0.000;0.000;2023-12-14T06:22:24;97210.50;;;21.56;29.68
77212;BME280;66206;0.000;0.000;2023-12-14T06:24:51;97212.05;;;21.74;29.44
77212;BME280;66206;0.000;0.000;2023-12-14T06:27:17;97214.69;;;21.56;29.64
77212;BME280;66206;0.000;0.000;2023-12-14T06:29:44;97222.09;;;21.55;29.77
77212;BME280;66206;0.000;0.000;2023-12-14T06:32:11;97228.66;;;21.64;29.61
77212;BME280;66206;0.000;0.000;2023-12-14T06:34:37;97233.14;;;21.70;29.63
77212;BME280;66206;0.000;0.000;2023-12-14T06:37:04;97231.90;;;21.64;29.40
77212;BME280;66206;0.000;0.000;2023-12-14T06:39:31;97233.65;;;21.68;29.44
77212;BME280;66206;0.000;0.000;2023-12-14T06:41:57;97237.89;;;21.61;29.47
77212;BME280;66206;0.000;0.000;2023-12-14T06:44:24;97243.72;;;21.68;29.39
77212;BME280;66206;0.000;0.000;2023-12-14T06:46:51;97249.70;;;21.55;29.49
77212;BME280;66206;0.000;0.000;2023-12-14T06:49:18;97255.55;;;21.64;29.48
77212;BME280;66206;0.000;0.000;2023-12-14T06:51:44;97259.92;;;21.57;29.54
77212;BME280;66206;0.000;0.000;2023-12-14T06:54:11;97265.81;;;21.51;29.81
77212;BME280;66206;0.000;0.000;2023-12-14T06:56:38;97274.69;;;21.55;29.56
77212;BME280;66206;0.000;0.000;2023-12-14T06:59:04;97276.49;;;21.65;29.52
77212;BME280;66206;0.000;0.000;2023-12-14T07:01:31;97283.61;;;21.64;29.49
77212;BME280;66206;0.000;0.000;2023-12-14T07:03:58;97291.93;;;21.66;29.28
77212;BME280;66206;0.000;0.000;2023-12-14T07:06:24;97297.79;;;21.60;29.50
77212;BME280;66206;0.000;0.000;2023-12-14T07:08:51;97304.06;;;21.78;29.15
77212;BME280;66206;0.000;0.000;2023-12-14T07:11:18;97313.35;;;21.69;29.31
77212;BME280;66206;0.000;0.000;2023-12-14T07:13:45;97316.42;;;21.77;29.19
77212;BME280;66206;0.000;0.000;2023-12-14T07:16:11;97319.02;;;21.69;29.41
77212;BME280;66206;0.000;0.000;2023-12-14T07:18:38;97322.12;;;21.74;29.37
77212;BME280;66206;0.000;0.000;2023-12-14T07:21:05;97328.06;;;21.66;29.44
77212;BME280;66206;0.000;0.000;2023-12-14T07:23:33;97332.18;;;21.69;29.47
77212;BME280;66206;0.000;0.000;2023-12-14T07:25:59;97338.48;;;21.54;29.96
77212;BME280;66206;0.000;0.000;2023-12-14T07:28:26;97341.67;;;21.60;29.69
77212;BME280;66206;0.000;0.000;2023-12-14T07:30:53;97346.75;;;21.57;29.63
77212;BME280;66206;0.000;0.000;2023-12-14T07:33:19;97348.77;;;21.83;29.45
77212;BME280;66206;0.000;0.000;2023-12-14T07:35:46;97352.02;;;21.70;29.70
77212;BME280;66206;0.000;0.000;2023-12-14T07:38:13;97355.46;;;21.64;29.57
77212;BME280;66206;0.000;0.000;2023-12-14T07:40:40;97360.42;;;21.60;29.56
77212;BME280;66206;0.000;0.000;2023-12-14T07:43:07;97362.38;;;21.71;29.15
77212;BME280;66206;0.000;0.000;2023-12-14T07:45:33;97361.10;;;21.59;29.38
77212;BME280;66206;0.000;0.000;2023-12-14T07:48:00;97365.31;;;21.73;29.33
77212;BME280;66206;0.000;0.000;2023-12-14T07:50:27;97365.99;;;21.62;29.35
77212;BME280;66206;0.000;0.000;2023-12-14T07:52:54;97365.31;;;21.66;29.41
77212;BME280;66206;0.000;0.000;2023-12-14T07:55:20;97366.25;;;21.65;29.48
77212;BME280;66206;0.000;0.000;2023-12-14T07:57:47;97374.20;;;21.71;29.49
77212;BME280;66206;0.000;0.000;2023-12-14T08:00:15;97381.19;;;21.88;29.16
77212;BME280;66206;0.000;0.000;2023-12-14T08:02:41;97381.51;;;21.54;28.19
77212;BME280;66206;0.000;0.000;2023-12-14T08:05:08;97383.72;;;20.83;28.54
77212;BME280;66206;0.000;0.000;2023-12-14T08:07:35;97388.34;;;21.29;28.60
77212;BME280;66206;0.000;0.000;2023-12-14T08:10:02;97396.55;;;21.32;29.50
77212;BME280;66206;0.000;0.000;2023-12-14T08:12:28;97397.62;;;21.35;29.77
77212;BME280;66206;0.000;0.000;2023-12-14T08:14:55;97401.65;;;21.93;29.25
77212;BME280;66206;0.000;0.000;2023-12-14T08:17:22;97409.02;;;21.87;29.29
77212;BME280;66206;0.000;0.000;2023-12-14T08:19:49;97415.23;;;21.81;29.45
77212;BME280;66206;0.000;0.000;2023-12-14T08:22:15;97418.91;;;21.89;29.32
77212;BME280;66206;0.000;0.000;2023-12-14T08:24:42;97423.98;;;22.07;29.34
77212;BME280;66206;0.000;0.000;2023-12-14T08:27:09;97424.88;;;22.03;29.63
77212;BME280;66206;0.000;0.000;2023-12-14T08:29:35;97421.32;;;22.33;29.34
77212;BME280;66206;0.000;0.000;2023-12-14T08:32:02;97427.90;;;22.32;29.22
77212;BME280;66206;0.000;0.000;2023-12-14T08:34:29;97433.26;;;22.28;29.09
77212;BME280;66206;0.000;0.000;2023-12-14T08:36:56;97437.42;;;22.45;29.00
77212;BME280;66206;0.000;0.000;2023-12-14T08:39:22;97446.48;;;22.35;28.90
77212;BME280;66206;0.000;0.000;2023-12-14T08:41:49;97449.85;;;22.48;28.79
77212;BME280;66206;0.000;0.000;2023-12-14T08:44:16;97455.21;;;22.51;28.84
77212;BME280;66206;0.000;0.000;2023-12-14T08:46:43;97461.06;;;22.47;28.89
77212;BME280;66206;0.000;0.000;2023-12-14T08:49:11;97465.78;;;22.39;28.91
77212;BME280;66206;0.000;0.000;2023-12-14T08:51:38;97461.50;;;22.46;28.72
77212;BME280;66206;0.000;0.000;2023-12-14T08:54:05;97457.08;;;22.74;28.59
77212;BME280;66206;0.000;0.000;2023-12-14T08:56:32;97457.45;;;22.51;28.43
77212;BME280;66206;0.000;0.000;2023-12-14T08:58:58;97462.42;;;22.63;28.46
77212;BME280;66206;0.000;0.000;2023-12-14T09:01:25;97471.57;;;22.84;28.25
77212;BME280;66206;0.000;0.000;2023-12-14T09:03:52;97482.13;;;22.74;28.26
77212;BME280;66206;0.000;0.000;2023-12-14T09:06:19;97487.05;;;22.82;28.17
77212;BME280;66206;0.000;0.000;2023-12-14T09:08:45;97492.31;;;22.76;28.28
77212;BME280;66206;0.000;0.000;2023-12-14T09:11:12;97494.54;;;22.69;28.39
77212;BME280;66206;0.000;0.000;2023-12-14T09:13:39;97499.79;;;22.82;28.28
77212;BME280;66206;0.000;0.000;2023-12-14T09:16:06;97506.58;;;22.67;28.23
77212;BME280;66206;0.000;0.000;2023-12-14T09:18:32;97512.05;;;22.57;28.58
77212;BME280;66206;0.000;0.000;2023-12-14T09:20:59;97515.64;;;22.51;28.52
77212;BME280;66206;0.000;0.000;2023-12-14T09:23:26;97524.39;;;22.66;28.38
77212;BME280;66206;0.000;0.000;2023-12-14T09:25:52;97527.02;;;22.59;28.59
77212;BME280;66206;0.000;0.000;2023-12-14T09:28:19;97527.96;;;22.75;28.32
77212;BME280;66206;0.000;0.000;2023-12-14T09:30:46;97535.39;;;22.51;28.29
77212;BME280;66206;0.000;0.000;2023-12-14T09:33:12;97540.02;;;22.31;28.87
77212;BME280;66206;0.000;0.000;2023-12-14T09:35:39;97534.24;;;22.55;28.80
77212;BME280;66206;0.000;0.000;2023-12-14T09:38:06;97538.87;;;22.65;28.64
77212;BME280;66206;0.000;0.000;2023-12-14T09:40:33;97544.36;;;22.47;28.79
77212;BME280;66206;0.000;0.000;2023-12-14T09:43:00;97546.10;;;22.71;28.62
77212;BME280;66206;0.000;0.000;2023-12-14T09:45:27;97552.64;;;22.60;28.78
77212;BME280;66206;0.000;0.000;2023-12-14T09:47:55;97555.96;;;22.54;28.73
77212;BME280;66206;0.000;0.000;2023-12-14T09:50:23;97558.13;;;22.64;28.68
77212;BME280;66206;0.000;0.000;2023-12-14T09:52:49;97557.71;;;22.83;28.53
77212;BME280;66206;0.000;0.000;2023-12-14T09:55:16;97561.50;;;22.36;29.17
77212;BME280;66206;0.000;0.000;2023-12-14T09:57:43;97568.19;;;22.43;28.94
77212;BME280;66206;0.000;0.000;2023-12-14T10:00:10;97568.47;;;22.77;28.65
77212;BME280;66206;0.000;0.000;2023-12-14T10:02:37;97569.44;;;22.96;28.50
77212;BME280;66206;0.000;0.000;2023-12-14T10:05:06;97570.00;;;23.01;28.53
77212;BME280;66206;0.000;0.000;2023-12-14T10:07:34;97572.65;;;22.89;28.64
77212;BME280;66206;0.000;0.000;2023-12-14T10:10:09;97580.13;;;22.89;28.54
77212;BME280;66206;0.000;0.000;2023-12-14T10:12:25;97582.18;;;22.82;28.55
77212;BME280;66206;0.000;0.000;2023-12-14T10:14:59;97585.05;;;23.03;28.45
77212;BME280;66206;0.000;0.000;2023-12-14T10:17:21;97584.05;;;22.90;28.52
77212;BME280;66206;0.000;0.000;2023-12-14T10:19:48;97581.50;;;23.00;28.53
77212;BME280;66206;0.000;0.000;2023-12-14T10:22:15;97585.19;;;22.72;28.95
77212;BME280;66206;0.000;0.000;2023-12-14T10:24:42;97584.53;;;22.98;28.71
77212;BME280;66206;0.000;0.000;2023-12-14T10:27:09;97588.05;;;22.66;28.99
77212;BME280;66206;0.000;0.000;2023-12-14T10:29:36;97585.91;;;22.92;28.80
77212;BME280;66206;0.000;0.000;2023-12-14T10:32:03;97588.51;;;22.89;28.64
77212;BME280;66206;0.000;0.000;2023-12-14T10:34:30;97592.05;;;22.83;28.73
77212;BME280;66206;0.000;0.000;2023-12-14T10:36:57;97596.55;;;22.97;28.74
77212;BME280;66206;0.000;0.000;2023-12-14T10:39:24;97598.72;;;22.89;28.88
77212;BME280;66206;0.000;0.000;2023-12-14T10:41:52;97601.77;;;22.86;28.83
77212;BME280;66206;0.000;0.000;2023-12-14T10:44:19;97599.93;;;23.04;28.65
77212;BME280;66206;0.000;0.000;2023-12-14T10:46:47;97602.34;;;22.92;28.65
77212;BME280;66206;0.000;0.000;2023-12-14T10:49:14;97600.96;;;22.83;28.87
77212;BME280;66206;0.000;0.000;2023-12-14T10:51:41;97603.37;;;22.83;28.86
77212;BME280;66206;0.000;0.000;2023-12-14T10:54:08;97605.65;;;22.57;29.04
77212;BME280;66206;0.000;0.000;2023-12-14T10:56:35;97607.15;;;22.98;28.66
77212;BME280;66206;0.000;0.000;2023-12-14T10:59:02;97611.17;;;23.00;28.70
77212;BME280;66206;0.000;0.000;2023-12-14T11:01:29;97612.82;;;23.05;28.79
77212;BME280;66206;0.000;0.000;2023-12-14T11:03:59;97614.11;;;22.74;28.99
77212;BME280;66206;0.000;0.000;2023-12-14T11:06:27;97615.10;;;22.63;29.08
77212;BME280;66206;0.000;0.000;2023-12-14T11:08:55;97620.10;;;22.83;28.87
77212;BME280;66206;0.000;0.000;2023-12-14T11:11:22;97621.39;;;22.90;28.94
77212;BME280;66206;0.000;0.000;2023-12-14T11:13:50;97622.62;;;22.59;29.03
77212;BME280;66206;0.000;0.000;2023-12-14T11:16:19;97630.79;;;22.29;29.33
77212;BME280;66206;0.000;0.000;2023-12-14T11:18:46;97632.44;;;22.54;29.38
77212;BME280;66206;0.000;0.000;2023-12-14T11:21:17;97635.81;;;22.68;28.97
77212;BME280;66206;0.000;0.000;2023-12-14T11:23:39;97639.55;;;22.76;28.93
77212;BME280;66206;0.000;0.000;2023-12-14T11:26:06;97642.52;;;22.34;29.23
77212;BME280;66206;0.000;0.000;2023-12-14T11:28:35;97641.26;;;22.57;29.10
77212;BME280;66206;0.000;0.000;2023-12-14T11:31:02;97647.39;;;22.74;29.09
77212;BME280;66206;0.000;0.000;2023-12-14T11:33:29;97653.26;;;22.74;29.20
77212;BME280;66206;0.000;0.000;2023-12-14T11:35:56;97658.05;;;22.46;29.37
77212;BME280;66206;0.000;0.000;2023-12-14T11:38:23;97657.59;;;22.48;29.47
77212;BME280;66206;0.000;0.000;2023-12-14T11:40:50;97661.60;;;22.17;29.69
77212;BME280;66206;0.000;0.000;2023-12-14T11:43:17;97661.41;;;22.36;29.61
77212;BME280;66206;0.000;0.000;2023-12-14T11:45:44;97661.52;;;22.30;29.67
77212;BME280;66206;0.000;0.000;2023-12-14T11:48:11;97664.89;;;22.58;29.44
77212;BME280;66206;0.000;0.000;2023-12-14T11:50:38;97667.33;;;22.54;29.41
77212;BME280;66206;0.000;0.000;2023-12-14T11:53:06;97668.55;;;22.60;29.48
77212;BME280;66206;0.000;0.000;2023-12-14T11:55:36;97666.88;;;22.53;29.54
77212;BME280;66206;0.000;0.000;2023-12-14T11:58:03;97668.59;;;22.68;29.45
77212;BME280;66206;0.000;0.000;2023-12-14T12:00:31;97668.96;;;22.72;29.20
77212;BME280;66206;0.000;0.000;2023-12-14T12:03:14;97670.06;;;22.82;29.24
77212;BME280;66206;0.000;0.000;2023-12-14T12:05:34;97669.96;;;22.75;29.21
77212;BME280;66206;0.000;0.000;2023-12-14T12:07:56;97669.81;;;22.54;29.43
77212;BME280;66206;0.000;0.000;2023-12-14T12:10:18;97668.84;;;22.58;29.44
77212;BME280;66206;0.000;0.000;2023-12-14T12:12:44;97668.16;;;22.54;29.48
77212;BME280;66206;0.000;0.000;2023-12-14T12:15:11;97672.54;;;22.86;29.23
77212;BME280;66206;0.000;0.000;2023-12-14T12:17:38;97673.58;;;22.80;29.10
77212;BME280;66206;0.000;0.000;2023-12-14T12:20:05;97671.38;;;22.65;29.22
77212;BME280;66206;0.000;0.000;2023-12-14T12:22:32;97671.38;;;22.57;29.27
77212;BME280;66206;0.000;0.000;2023-12-14T12:24:58;97672.90;;;22.62;29.41
77212;BME280;66206;0.000;0.000;2023-12-14T12:27:25;97673.05;;;22.43;29.66
77212;BME280;66206;0.000;0.000;2023-12-14T12:29:52;97676.30;;;21.93;30.07
77212;BME280;66206;0.000;0.000;2023-12-14T12:32:18;97679.60;;;22.26;29.89
77212;BME280;66206;0.000;0.000;2023-12-14T12:34:45;97682.10;;;22.32;29.87
77212;BME280;66206;0.000;0.000;2023-12-14T12:37:12;97679.27;;;22.15;30.09
77212;BME280;66206;0.000;0.000;2023-12-14T12:39:38;97682.30;;;22.55;29.55
77212;BME280;66206;0.000;0.000;2023-12-14T12:42:05;97684.91;;;22.49;29.60
77212;BME280;66206;0.000;0.000;2023-12-14T12:44:32;97688.77;;;22.56;29.59
77212;BME280;66206;0.000;0.000;2023-12-14T12:46:58;97689.87;;;22.51;29.52
77212;BME280;66206;0.000;0.000;2023-12-14T12:49:25;97690.00;;;22.70;29.28
77212;BME280;66206;0.000;0.000;2023-12-14T12:51:52;97692.28;;;22.58;29.28
77212;BME280;66206;0.000;0.000;2023-12-14T12:54:19;97690.28;;;22.58;29.36
77212;BME280;66206;0.000;0.000;2023-12-14T12:56:45;97694.54;;;22.80;29.47
77212;BME280;66206;0.000;0.000;2023-12-14T12:59:12;97698.40;;;22.69;29.46
77212;BME280;66206;0.000;0.000;2023-12-14T13:01:39;97697.38;;;22.78;29.46
77212;BME280;66206;0.000;0.000;2023-12-14T13:04:06;97699.58;;;22.45;29.78
77212;BME280;66206;0.000;0.000;2023-12-14T13:06:33;97702.18;;;22.51;29.60